createdAt,value
2019-02-21T00:01:02.641Z,19.90
2019-02-21T00:03:31.363Z,23.15
2019-02-21T00:06:00.106Z,24.40
2019-02-21T00:08:28.907Z,24.40
2019-02-21T00:10:57.606Z,24.00
2019-02-21T00:13:26.362Z,21.60
2019-02-21T00:15:55.079Z,23.18
2019-02-21T00:18:23.802Z,21.95
2019-02-21T00:20:52.521Z,22.82
2019-02-21T00:23:21.232Z,22.60
2019-02-21T00:25:50.158Z,21.55
2019-02-21T00:28:18.918Z,22.15
2019-02-21T00:30:47.618Z,20.92
2019-02-21T00:33:16.342Z,27.50
2019-02-21T00:35:45.118Z,20.82
2019-02-21T00:38:13.826Z,25.32
2019-02-21T00:40:42.535Z,23.38
2019-02-21T00:43:11.306Z,25.88
2019-02-21T00:45:40.018Z,26.55
2019-02-21T00:48:08.722Z,25.43
2019-02-21T00:50:37.754Z,26.15
2019-02-21T00:53:06.450Z,21.90
2019-02-21T00:55:37.325Z,22.95
2019-02-21T00:58:13.990Z,23.73
2019-02-21T01:00:46.599Z,24.43
2019-02-21T01:03:13.148Z,22.87
2019-02-21T01:05:41.890Z,20.88
2019-02-21T01:08:10.672Z,22.65
2019-02-21T01:10:39.398Z,23.18
2019-02-21T01:13:08.150Z,21.57
2019-02-21T01:15:36.886Z,21.25
2019-02-21T01:18:05.618Z,23.20
2019-02-21T01:20:34.364Z,24.60
2019-02-21T01:23:03.414Z,21.73
2019-02-21T01:25:32.135Z,25.32
2019-02-21T01:28:01.050Z,24.87
2019-02-21T01:30:29.762Z,24.98
2019-02-21T01:32:58.468Z,24.65
2019-02-21T01:35:27.198Z,26.80
2019-02-21T01:37:55.911Z,22.02
2019-02-21T01:40:24.650Z,21.82
2019-02-21T01:42:53.376Z,21.40
2019-02-21T01:45:22.084Z,20.77
2019-02-21T01:47:50.789Z,19.10
2019-02-21T01:50:19.518Z,22.80
2019-02-21T01:52:48.286Z,22.87
2019-02-21T01:55:16.994Z,22.32
2019-02-21T01:57:45.722Z,24.02
2019-02-21T02:00:14.510Z,24.52
2019-02-21T02:02:43.274Z,23.95
2019-02-21T02:05:11.999Z,20.57
2019-02-21T02:07:40.707Z,24.18
2019-02-21T02:10:10.794Z,24.27
2019-02-21T02:12:39.986Z,22.87
2019-02-21T02:15:08.845Z,19.62
2019-02-21T02:17:37.546Z,22.82
2019-02-21T02:20:07.688Z,23.00
2019-02-21T02:22:36.506Z,23.30
2019-02-21T02:25:05.260Z,28.38
2019-02-21T02:27:34.053Z,27.05
2019-02-21T02:30:02.904Z,24.35
2019-02-21T02:32:31.685Z,24.37
2019-02-21T02:35:00.539Z,23.05
2019-02-21T02:37:29.234Z,23.57
2019-02-21T02:39:57.982Z,25.02
2019-02-21T02:42:26.703Z,27.00
2019-02-21T02:44:55.425Z,25.50
2019-02-21T02:47:24.128Z,25.77
2019-02-21T02:49:52.869Z,25.57
2019-02-21T02:52:21.578Z,23.22
2019-02-21T02:54:50.302Z,24.60
2019-02-21T02:57:19.116Z,25.27
2019-02-21T02:59:47.838Z,27.67
2019-02-21T03:02:16.542Z,31.57
2019-02-21T03:04:45.382Z,26.05
2019-02-21T03:07:14.117Z,26.85
2019-02-21T03:09:42.907Z,24.60
2019-02-21T03:12:11.622Z,26.35
2019-02-21T03:14:40.324Z,25.80
2019-02-21T03:17:09.074Z,26.95
2019-02-21T03:19:37.810Z,24.75
2019-02-21T03:22:06.527Z,35.98
2019-02-21T03:24:35.239Z,27.98
2019-02-21T03:27:03.961Z,26.23
2019-02-21T03:29:32.668Z,28.42
2019-02-21T03:32:01.407Z,29.27
2019-02-21T03:34:30.175Z,26.23
2019-02-21T03:36:58.871Z,30.37
2019-02-21T03:39:27.627Z,33.02
2019-02-21T03:41:56.358Z,33.30
2019-02-21T03:44:25.053Z,34.35
2019-02-21T03:46:53.805Z,26.70
2019-02-21T03:49:22.717Z,32.67
2019-02-21T03:51:51.409Z,29.27
2019-02-21T03:54:20.155Z,32.23
2019-02-21T03:56:48.862Z,31.23
2019-02-21T03:59:17.603Z,31.68
2019-02-21T04:01:46.365Z,32.88
2019-02-21T04:04:15.110Z,32.70
2019-02-21T04:06:44.667Z,34.33
2019-02-21T04:09:13.409Z,33.73
2019-02-21T04:11:42.158Z,35.15
2019-02-21T04:14:10.958Z,33.23
2019-02-21T04:16:40.005Z,32.10
2019-02-21T04:19:08.749Z,34.30
2019-02-21T04:21:37.455Z,32.88
2019-02-21T04:24:06.274Z,34.92
2019-02-21T04:26:35.163Z,34.70
2019-02-21T04:29:04.240Z,32.98
2019-02-21T04:31:32.966Z,36.15
2019-02-21T04:34:02.646Z,37.58
2019-02-21T04:36:31.378Z,32.53
2019-02-21T04:39:00.160Z,32.05
2019-02-21T04:41:30.071Z,36.48
2019-02-21T04:43:59.530Z,34.80
2019-02-21T04:46:28.539Z,35.55
2019-02-21T04:48:57.350Z,35.95
2019-02-21T04:51:26.148Z,36.45
2019-02-21T04:53:54.938Z,35.48
2019-02-21T04:56:23.640Z,40.45
2019-02-21T04:58:52.343Z,42.70
2019-02-21T05:01:21.174Z,40.03
2019-02-21T05:03:49.958Z,43.13
2019-02-21T05:06:18.657Z,38.90
2019-02-21T05:08:47.631Z,43.05
2019-02-21T05:11:16.338Z,43.35
2019-02-21T05:13:45.059Z,42.10
2019-02-21T05:16:13.846Z,42.78
2019-02-21T05:18:42.689Z,43.65
2019-02-21T05:21:11.422Z,44.23
2019-02-21T05:23:40.138Z,47.23
2019-02-21T05:26:10.490Z,47.13
2019-02-21T05:28:41.154Z,46.33
2019-02-21T05:31:15.595Z,50.23
2019-02-21T05:33:55.441Z,46.98
2019-02-21T05:36:32.045Z,48.78
2019-02-21T05:39:17.986Z,50.85
2019-02-21T05:42:10.776Z,50.73
2019-02-21T05:44:45.991Z,51.92
2019-02-21T05:47:28.727Z,52.40
2019-02-21T05:50:19.619Z,51.50
2019-02-21T05:53:04.444Z,52.67
2019-02-21T05:55:42.093Z,54.63
2019-02-21T05:58:20.489Z,53.40
2019-02-21T06:01:08.534Z,50.28
2019-02-21T06:03:43.351Z,53.78
2019-02-21T06:06:28.762Z,57.08
2019-02-21T06:09:17.382Z,50.88
2019-02-21T06:12:05.262Z,53.33
2019-02-21T06:14:48.541Z,54.48
2019-02-21T06:17:34.228Z,56.08
2019-02-21T06:20:28.558Z,50.65
2019-02-21T06:23:19.625Z,56.37
2019-02-21T06:25:56.711Z,56.92
2019-02-21T06:28:30.350Z,54.88
2019-02-21T06:31:02.320Z,59.33
2019-02-21T06:33:31.600Z,56.35
2019-02-21T06:36:00.348Z,51.50
2019-02-21T06:38:29.510Z,53.20
2019-02-21T06:40:58.239Z,52.03
2019-02-21T06:43:27.044Z,51.50
2019-02-21T06:45:57.919Z,49.13
2019-02-21T06:48:26.604Z,49.27
2019-02-21T06:50:55.587Z,54.42
2019-02-21T06:53:24.430Z,54.13
2019-02-21T06:55:53.135Z,54.70
2019-02-21T06:58:21.863Z,54.27
2019-02-21T07:00:50.566Z,53.92
2019-02-21T07:03:19.273Z,54.75
2019-02-21T07:05:48.062Z,51.35
2019-02-21T07:08:16.794Z,52.58
2019-02-21T07:10:47.657Z,50.05
2019-02-21T07:13:26.139Z,49.33
2019-02-21T07:15:47.050Z,49.98
2019-02-21T07:18:15.794Z,50.80
2019-02-21T07:20:44.514Z,51.65
2019-02-21T07:23:13.226Z,50.67
2019-02-21T07:25:44.781Z,54.83
2019-02-21T07:28:15.795Z,51.28
2019-02-21T07:30:44.114Z,49.30
2019-02-21T07:33:13.364Z,50.50
2019-02-21T07:35:42.893Z,46.33
2019-02-21T07:38:11.606Z,47.27
2019-02-21T07:40:40.387Z,52.55
2019-02-21T07:43:09.179Z,51.42
2019-02-21T07:45:38.023Z,44.13
2019-02-21T07:48:06.772Z,50.55
2019-02-21T07:50:35.531Z,48.68
2019-02-21T07:53:04.427Z,42.93
2019-02-21T07:55:33.171Z,49.00
2019-02-21T07:58:03.949Z,52.35
2019-02-21T08:00:32.379Z,49.93
2019-02-21T08:03:01.110Z,45.85
2019-02-21T08:05:29.936Z,48.10
2019-02-21T08:07:58.766Z,52.62
2019-02-21T08:10:33.601Z,46.70
2019-02-21T08:12:57.959Z,45.50
2019-02-21T08:15:27.793Z,50.28
2019-02-21T08:17:56.718Z,47.23
2019-02-21T08:20:33.918Z,50.90
2019-02-21T08:22:57.001Z,44.70
2019-02-21T08:25:25.731Z,45.12
2019-02-21T08:27:54.496Z,45.98
2019-02-21T08:30:23.236Z,46.88
2019-02-21T08:33:05.315Z,46.42
2019-02-21T08:35:34.052Z,43.33
2019-02-21T08:38:02.844Z,46.92
2019-02-21T08:40:31.791Z,44.80
2019-02-21T08:43:00.518Z,45.52
2019-02-21T08:45:29.355Z,48.68
2019-02-21T08:47:58.112Z,44.58
2019-02-21T08:50:26.918Z,46.37
2019-02-21T08:52:55.642Z,44.18
2019-02-21T08:55:24.563Z,48.78
2019-02-21T08:57:53.351Z,45.43
2019-02-21T09:00:22.101Z,47.73
2019-02-21T09:02:50.866Z,43.13
2019-02-21T09:05:19.606Z,45.92
2019-02-21T09:07:48.334Z,50.70
2019-02-21T09:10:17.071Z,48.80
2019-02-21T09:12:48.423Z,45.55
2019-02-21T09:15:17.675Z,48.20
2019-02-21T09:17:47.403Z,48.92
2019-02-21T09:20:16.175Z,48.78
2019-02-21T09:22:44.907Z,49.15
2019-02-21T09:25:15.231Z,49.00
2019-02-21T09:27:44.105Z,45.95
2019-02-21T09:30:15.026Z,48.15
2019-02-21T09:32:43.820Z,50.30
2019-02-21T09:35:12.631Z,44.15
2019-02-21T09:37:41.383Z,47.35
2019-02-21T09:40:11.108Z,44.23
2019-02-21T09:42:39.861Z,49.30
2019-02-21T09:45:14.949Z,46.18
2019-02-21T09:47:43.831Z,42.93
2019-02-21T09:50:12.955Z,46.90
2019-02-21T09:52:41.711Z,43.42
2019-02-21T09:55:11.938Z,44.48
2019-02-21T09:57:40.691Z,43.48
2019-02-21T10:00:19.450Z,45.78
2019-02-21T10:02:48.217Z,41.33
2019-02-21T10:05:17.081Z,39.25
2019-02-21T10:07:45.908Z,42.83
2019-02-21T10:10:16.242Z,37.17
2019-02-21T10:12:45.126Z,38.10
2019-02-21T10:15:14.574Z,41.83
2019-02-21T10:17:44.727Z,43.65
2019-02-21T10:20:15.736Z,39.67
2019-02-21T10:22:44.543Z,41.45
2019-02-21T10:25:16.142Z,43.67
2019-02-21T10:27:44.871Z,43.77
2019-02-21T10:30:14.519Z,47.30
2019-02-21T10:32:43.277Z,40.80
2019-02-21T10:35:12.087Z,41.73
2019-02-21T10:37:40.827Z,39.23
2019-02-21T10:40:10.467Z,36.67
2019-02-21T10:42:39.234Z,40.23
2019-02-21T10:45:10.731Z,38.13
2019-02-21T10:47:39.465Z,35.17
2019-02-21T10:50:13.909Z,29.63
2019-02-21T10:52:41.737Z,33.55
2019-02-21T10:55:10.678Z,32.83
2019-02-21T10:57:39.434Z,34.40
2019-02-21T11:00:12.219Z,33.60
2019-02-21T11:02:40.971Z,34.35
2019-02-21T11:05:09.751Z,36.33
2019-02-21T11:07:38.499Z,35.00
2019-02-21T11:10:07.903Z,31.37
2019-02-21T11:12:36.638Z,32.23
2019-02-21T11:15:07.859Z,29.90
2019-02-21T11:17:36.586Z,27.60
2019-02-21T11:20:06.539Z,29.53
2019-02-21T11:22:36.198Z,30.17
2019-02-21T11:25:05.415Z,28.03
2019-02-21T11:27:34.162Z,31.87
2019-02-21T11:30:03.023Z,28.50
2019-02-21T11:32:31.829Z,31.43
2019-02-21T11:35:06.129Z,27.53
2019-02-21T11:37:42.631Z,29.03
2019-02-21T11:40:05.559Z,32.77
2019-02-21T11:42:34.655Z,31.47
2019-02-21T11:45:03.468Z,34.43
2019-02-21T11:47:32.360Z,33.00
2019-02-21T11:50:01.156Z,31.73
2019-02-21T11:52:29.876Z,32.30
2019-02-21T11:54:58.686Z,23.43
2019-02-21T11:57:27.418Z,26.40
2019-02-21T11:59:56.147Z,29.70
2019-02-21T12:02:24.963Z,24.80
2019-02-21T12:04:57.152Z,25.87
2019-02-21T12:07:25.872Z,24.37
2019-02-21T12:09:54.763Z,26.93
2019-02-21T12:12:23.489Z,27.20
2019-02-21T12:14:52.263Z,30.07
2019-02-21T12:17:21.116Z,25.30
2019-02-21T12:19:49.830Z,24.10
2019-02-21T12:22:18.555Z,28.07
2019-02-21T12:24:47.330Z,26.07
2019-02-21T12:27:16.071Z,28.30
2019-02-21T12:29:44.795Z,24.50
2019-02-21T12:32:13.532Z,27.43
2019-02-21T12:34:42.271Z,28.40
2019-02-21T12:37:11.016Z,29.70
2019-02-21T12:39:39.786Z,28.83
2019-02-21T12:42:08.571Z,25.53
2019-02-21T12:44:37.450Z,29.43
2019-02-21T12:47:06.207Z,28.00
2019-02-21T12:49:34.967Z,27.53
2019-02-21T12:52:03.727Z,32.00
2019-02-21T12:54:32.532Z,36.93
2019-02-21T12:57:01.297Z,34.73
2019-02-21T12:59:30.114Z,32.93
2019-02-21T13:01:58.849Z,33.47
2019-02-21T13:04:27.608Z,38.00
2019-02-21T13:06:56.647Z,33.90
2019-02-21T13:09:25.359Z,33.60
2019-02-21T13:11:54.125Z,36.87
2019-02-21T13:14:23.051Z,38.88
2019-02-21T13:16:51.791Z,42.17
2019-02-21T13:19:20.542Z,44.18
2019-02-21T13:21:49.274Z,39.13
2019-02-21T13:24:18.142Z,41.92
2019-02-21T13:26:46.930Z,43.68
2019-02-21T13:29:15.668Z,48.45
2019-02-21T13:31:44.416Z,38.78
2019-02-21T13:34:13.232Z,51.55
2019-02-21T13:36:41.962Z,50.63
2019-02-21T13:39:10.723Z,50.45
2019-02-21T13:41:39.743Z,55.75
2019-02-21T13:44:08.463Z,65.37
2019-02-21T13:46:40.218Z,66.40
2019-02-21T13:49:07.753Z,59.10
2019-02-21T13:51:36.504Z,67.10
2019-02-21T13:54:05.237Z,67.20
2019-02-21T13:56:33.978Z,69.87
2019-02-21T13:59:02.727Z,71.82
2019-02-21T14:01:31.457Z,76.35
2019-02-21T14:04:00.195Z,82.72
2019-02-21T14:06:28.931Z,71.42
2019-02-21T14:08:57.656Z,88.30
2019-02-21T14:11:26.376Z,82.42
2019-02-21T14:13:55.107Z,78.50
2019-02-21T14:16:23.833Z,77.62
2019-02-21T14:18:52.581Z,81.67
2019-02-21T14:21:21.341Z,80.32
2019-02-21T14:23:50.094Z,73.20
2019-02-21T14:26:18.898Z,81.37
2019-02-21T14:28:47.681Z,87.12
2019-02-21T14:31:16.389Z,89.58
2019-02-21T14:33:45.103Z,88.82
2019-02-21T14:36:18.799Z,89.15
2019-02-21T14:38:45.614Z,90.50
2019-02-21T14:41:14.414Z,92.70
2019-02-21T14:43:43.238Z,86.85
2019-02-21T14:46:11.938Z,94.90
2019-02-21T14:48:41.391Z,84.30
2019-02-21T14:51:10.694Z,84.03
2019-02-21T14:53:41.516Z,81.37
2019-02-21T14:56:10.221Z,72.58
2019-02-21T14:58:39.515Z,74.85
2019-02-21T15:01:08.318Z,77.45
2019-02-21T15:03:37.245Z,92.82
2019-02-21T15:06:06.234Z,78.05
2019-02-21T15:08:35.366Z,80.10
2019-02-21T15:11:04.671Z,91.15
2019-02-21T15:13:33.391Z,84.10
2019-02-21T15:16:02.183Z,80.45
2019-02-21T15:18:30.894Z,86.63
2019-02-21T15:20:59.667Z,87.05
2019-02-21T15:23:28.385Z,80.95
2019-02-21T15:25:57.122Z,67.78
2019-02-21T15:28:25.868Z,73.45
2019-02-21T15:30:54.703Z,72.82
2019-02-21T15:33:23.450Z,65.42
2019-02-21T15:35:52.151Z,69.12
2019-02-21T15:38:20.889Z,62.65
2019-02-21T15:40:49.630Z,66.77
2019-02-21T15:43:18.358Z,64.70
2019-02-21T15:45:47.062Z,69.87
2019-02-21T15:48:15.828Z,63.20
2019-02-21T15:50:44.578Z,58.80
2019-02-21T15:53:13.273Z,55.67
2019-02-21T15:55:42.036Z,56.85
2019-02-21T15:58:10.837Z,60.23
2019-02-21T16:00:39.694Z,60.38
2019-02-21T16:03:08.501Z,66.15
2019-02-21T16:05:37.314Z,59.23
2019-02-21T16:08:06.093Z,67.37
2019-02-21T16:10:34.821Z,62.15
2019-02-21T16:13:05.041Z,73.85
2019-02-21T16:15:34.011Z,68.47
2019-02-21T16:18:02.978Z,71.00
2019-02-21T16:20:31.720Z,72.80
2019-02-21T16:23:00.540Z,77.67
2019-02-21T16:25:29.336Z,70.17
2019-02-21T16:27:58.035Z,76.22
2019-02-21T16:30:26.730Z,65.20
2019-02-21T16:32:55.471Z,67.27
2019-02-21T16:35:24.184Z,63.20
2019-02-21T16:37:52.963Z,63.90
2019-02-21T16:40:21.761Z,65.87
2019-02-21T16:42:50.461Z,75.15
2019-02-21T16:45:19.196Z,63.90
2019-02-21T16:47:48.027Z,71.47
2019-02-21T16:50:28.848Z,70.20
2019-02-21T16:52:48.158Z,70.72
2019-02-21T16:55:18.045Z,73.62
2019-02-21T16:57:46.842Z,65.45
2019-02-21T17:00:16.599Z,69.53
2019-02-21T17:02:45.359Z,59.38
2019-02-21T17:05:14.874Z,64.40
2019-02-21T17:07:43.613Z,57.62
2019-02-21T17:10:13.598Z,67.30
2019-02-21T17:12:42.767Z,58.83
2019-02-21T17:15:12.055Z,58.52
2019-02-21T17:17:42.172Z,63.48
2019-02-21T17:20:12.372Z,60.85
2019-02-21T17:22:41.236Z,57.93
2019-02-21T17:25:10.950Z,65.17
2019-02-21T17:27:39.726Z,68.35
2019-02-21T17:30:09.668Z,60.90
2019-02-21T17:32:38.398Z,67.08
2019-02-21T17:35:07.147Z,65.45
2019-02-21T17:37:35.915Z,68.28
2019-02-21T17:40:05.067Z,68.45
2019-02-21T17:42:33.786Z,62.65
2019-02-21T17:45:02.505Z,67.58
2019-02-21T17:47:32.745Z,56.48
2019-02-21T17:50:01.784Z,70.50
2019-02-21T17:52:30.629Z,64.42
2019-02-21T17:54:59.418Z,61.75
2019-02-21T17:57:28.118Z,52.03
2019-02-21T17:59:56.854Z,68.00
2019-02-21T18:02:25.971Z,65.22
2019-02-21T18:04:54.770Z,59.45
2019-02-21T18:07:23.477Z,64.85
2019-02-21T18:09:53.770Z,63.17
2019-02-21T18:12:22.534Z,63.68
2019-02-21T18:14:51.732Z,61.90
2019-02-21T18:17:20.509Z,62.00
2019-02-21T18:19:49.242Z,62.13
2019-02-21T18:22:18.036Z,58.78
2019-02-21T18:24:47.071Z,61.25
2019-02-21T18:27:15.795Z,58.45
2019-02-21T18:29:45.176Z,67.35
2019-02-21T18:32:13.967Z,57.60
2019-02-21T18:34:43.460Z,61.25
2019-02-21T18:37:12.627Z,57.50
2019-02-21T18:39:47.511Z,60.35
2019-02-21T18:42:16.674Z,58.15
2019-02-21T18:44:47.835Z,70.78
2019-02-21T18:47:16.763Z,60.75
2019-02-21T18:49:45.663Z,63.90
2019-02-21T18:52:14.759Z,58.28
2019-02-21T18:54:43.604Z,57.70
2019-02-21T18:57:12.678Z,58.08
2019-02-21T18:59:41.542Z,54.90
2019-02-21T19:02:10.698Z,55.30
2019-02-21T19:04:40.126Z,58.20
2019-02-21T19:07:09.136Z,58.73
2019-02-21T19:09:38.542Z,57.10
2019-02-21T19:12:07.480Z,47.38
2019-02-21T19:14:36.442Z,64.65
2019-02-21T19:17:08.719Z,64.45
2019-02-21T19:19:37.875Z,60.88
2019-02-21T19:22:06.806Z,62.25
2019-02-21T19:24:37.110Z,55.85
2019-02-21T19:27:07.342Z,67.12
2019-02-21T19:29:36.255Z,65.78
2019-02-21T19:32:05.722Z,63.68
2019-02-21T19:34:34.868Z,58.35
2019-02-21T19:37:03.918Z,72.87
2019-02-21T19:39:32.708Z,59.77
2019-02-21T19:42:01.754Z,66.35
2019-02-21T19:44:30.488Z,67.27
2019-02-21T19:46:59.205Z,63.92
2019-02-21T19:49:27.982Z,66.45
2019-02-21T19:51:56.714Z,56.73
2019-02-21T19:54:25.482Z,58.87
2019-02-21T19:56:54.241Z,70.12
2019-02-21T19:59:22.966Z,65.12
2019-02-21T20:01:52.198Z,84.90
2019-02-21T20:04:21.627Z,66.07
2019-02-21T20:06:50.451Z,74.62
2019-02-21T20:09:19.295Z,63.80
2019-02-21T20:11:49.099Z,68.17
2019-02-21T20:14:18.138Z,81.97
2019-02-21T20:16:47.041Z,71.12
2019-02-21T20:19:15.838Z,75.60
2019-02-21T20:21:45.284Z,63.58
2019-02-21T20:24:14.936Z,77.17
2019-02-21T20:26:43.694Z,68.10
2019-02-21T20:29:12.570Z,63.58
2019-02-21T20:31:41.507Z,75.78
2019-02-21T20:34:12.866Z,63.20
2019-02-21T20:36:50.653Z,76.45
2019-02-21T20:39:13.001Z,70.35
2019-02-21T20:41:41.746Z,66.82
2019-02-21T20:44:10.530Z,65.78
2019-02-21T20:46:39.287Z,57.90
2019-02-21T20:49:08.110Z,69.95
2019-02-21T20:51:36.907Z,70.22
2019-02-21T20:54:05.728Z,74.67
2019-02-21T20:56:34.503Z,73.30
2019-02-21T20:59:05.274Z,69.60
2019-02-21T21:01:34.010Z,84.65
2019-02-21T21:04:02.731Z,81.15
2019-02-21T21:06:31.462Z,92.78
2019-02-21T21:09:00.214Z,83.65
2019-02-21T21:11:28.918Z,91.28
2019-02-21T21:13:57.644Z,90.62
2019-02-21T21:16:26.529Z,99.45
2019-02-21T21:18:55.311Z,96.63
2019-02-21T21:21:24.096Z,104.15
2019-02-21T21:23:52.814Z,95.85
2019-02-21T21:26:21.512Z,110.12
2019-02-21T21:28:50.266Z,116.25
2019-02-21T21:31:19.009Z,116.62
2019-02-21T21:33:47.793Z,123.58
2019-02-21T21:36:17.523Z,130.10
2019-02-21T21:38:53.640Z,125.50
2019-02-21T21:41:16.807Z,137.72
2019-02-21T21:43:45.532Z,130.35
2019-02-21T21:46:14.566Z,131.00
2019-02-21T21:48:43.273Z,150.15
2019-02-21T21:51:12.266Z,143.37
2019-02-21T21:53:41.816Z,142.93
2019-02-21T21:56:10.545Z,163.82
2019-02-21T21:58:40.866Z,168.75
2019-02-21T22:01:09.554Z,165.95
2019-02-21T22:03:38.495Z,160.30
2019-02-21T22:06:07.771Z,169.97
2019-02-21T22:08:38.039Z,160.63
2019-02-21T22:11:09.881Z,153.47
2019-02-21T22:13:38.963Z,164.93
2019-02-21T22:19:19.685Z,163.30
2019-02-21T22:22:16.239Z,165.03
2019-02-21T22:25:02.688Z,170.72
2019-02-21T22:27:33.478Z,167.30
2019-02-21T22:30:02.234Z,180.78
2019-02-21T22:32:31.003Z,185.70
2019-02-21T22:34:59.763Z,188.65
2019-02-21T22:37:28.595Z,205.92
2019-02-21T22:39:57.306Z,204.13
2019-02-21T22:42:26.089Z,188.87
2019-02-21T22:44:54.854Z,192.00
2019-02-21T22:47:23.608Z,189.82
2019-02-21T22:49:52.343Z,191.35
2019-02-21T22:52:21.103Z,231.72
2019-02-21T22:54:49.822Z,250.80
2019-02-21T22:57:18.626Z,205.57
2019-02-21T22:59:47.338Z,221.62
2019-02-21T23:02:16.599Z,214.55
2019-02-21T23:05:01.958Z,221.13
2019-02-21T23:07:56.222Z,241.40
2019-02-21T23:10:24.966Z,221.65
2019-02-21T23:12:53.670Z,217.28
2019-02-21T23:15:22.391Z,199.62
2019-02-21T23:17:51.118Z,220.90
2019-02-21T23:20:20.109Z,215.47
2019-02-21T23:22:48.810Z,209.18
2019-02-21T23:25:17.546Z,226.27
2019-02-21T23:27:46.247Z,225.07
2019-02-21T23:30:15.014Z,200.38
2019-02-21T23:32:43.770Z,188.27
2019-02-21T23:35:18.054Z,196.07
2019-02-21T23:37:46.778Z,204.10
2019-02-21T23:40:15.515Z,188.50
2019-02-21T23:42:44.250Z,205.90
2019-02-21T23:45:13.038Z,237.63
2019-02-21T23:47:49.384Z,224.25
2019-02-21T23:50:12.199Z,224.80
2019-02-21T23:52:40.934Z,250.55
2019-02-21T23:55:09.695Z,209.00
2019-02-21T23:57:38.393Z,195.57
